Time;durP1;ratioP1;P1;durP2;ratioP2;P2;SDS_P1;SDS_P2;PMS_P1;PMS_P2;Temp;Humidity;BMP_temperature;BMP_pressure;BME280_temperature;BME280_humidity;BME280_pressure;Samples;Min_cycle;Max_cycle;Signal;HPM_P1;HPM_P2
2021/12/18 00:00:16;;;;;;;34.38;12.68;;;;;;;2.83;84.11;102536.41;1696912;84;20938;-70
2021/12/18 00:02:46;;;;;;;21.52;8.25;;;;;;;2.83;84.10;102534.63;1695924;84;21012;-71
2021/12/18 00:05:12;;;;;;;29.67;10.82;;;;;;;2.82;84.11;102537.32;1684668;84;21045;-71
2021/12/18 00:07:38;;;;;;;31.23;12.85;;;;;;;2.82;84.10;102538.63;1685694;84;21202;-71
2021/12/18 00:10:05;;;;;;;35.95;14.47;;;;;;;2.82;84.10;102532.05;1687529;84;20984;-71
2021/12/18 00:12:31;;;;;;;29.72;10.55;;;;;;;2.82;84.08;102534.23;1687642;84;21005;-71
2021/12/18 00:14:57;;;;;;;24.15;9.68;;;;;;;2.80;84.09;102526.01;1687748;84;21810;-70
2021/12/18 00:17:22;;;;;;;21.62;9.48;;;;;;;2.78;84.09;102523.91;1685705;84;20886;-70
2021/12/18 00:19:48;;;;;;;24.02;9.78;;;;;;;2.77;84.08;102534.05;1686739;83;21185;-70
2021/12/18 00:22:14;;;;;;;29.30;10.28;;;;;;;2.76;84.08;102534.96;1687135;84;21670;-70
2021/12/18 00:24:40;;;;;;;20.57;8.58;;;;;;;2.76;84.06;102540.23;1688764;84;21489;-70
2021/12/18 00:27:06;;;;;;;25.82;10.20;;;;;;;2.78;84.08;102534.45;1684462;84;20996;-71
2021/12/18 00:29:33;;;;;;;28.87;10.55;;;;;;;2.76;84.07;102533.19;1686885;84;21008;-71
2021/12/18 00:31:59;;;;;;;33.48;10.85;;;;;;;2.75;84.09;102533.24;1681062;84;21163;-71
2021/12/18 00:34:24;;;;;;;22.95;9.00;;;;;;;2.74;84.08;102531.55;1693035;83;20888;-70
2021/12/18 00:36:51;;;;;;;28.92;9.65;;;;;;;2.73;84.08;102533.33;1696499;84;20907;-71
2021/12/18 00:39:17;;;;;;;24.15;8.50;;;;;;;2.73;84.08;102533.78;1695612;84;21525;-71
2021/12/18 00:44:13;;;;;;;25.02;8.88;;;;;;;2.71;84.10;102537.79;1688025;84;21814;-71
2021/12/18 00:46:45;;;;;;;31.93;11.00;;;;;;;2.72;84.08;102534.24;1684663;84;21083;-70
2021/12/18 00:49:15;;;;;;;31.93;11.05;;;;;;;2.72;84.09;102536.02;1682434;84;21044;-71
2021/12/18 00:51:41;;;;;;;28.42;11.15;;;;;;;2.70;84.09;102540.51;1686470;84;21484;-70
2021/12/18 00:54:06;;;;;;;26.40;10.25;;;;;;;2.69;84.09;102548.01;1684289;84;21187;-71
2021/12/18 00:56:32;;;;;;;33.05;12.53;;;;;;;2.65;84.08;102547.74;1690615;84;21198;-70
2021/12/18 00:58:59;;;;;;;28.45;10.30;;;;;;;2.62;84.09;102557.09;1683967;84;21719;-70
2021/12/18 01:01:26;;;;;;;29.23;9.45;;;;;;;2.59;84.08;102550.19;1715428;83;21102;-71
2021/12/18 01:03:53;;;;;;;32.38;12.15;;;;;;;2.58;84.10;102545.84;1683172;84;21026;-70
2021/12/18 01:06:20;;;;;;;30.68;10.65;;;;;;;2.58;84.09;102548.92;1677231;85;21475;-71
2021/12/18 01:08:47;;;;;;;38.63;14.55;;;;;;;2.58;84.09;102548.92;1683248;84;21236;-70
2021/12/18 01:24:33;;;;;;;23.38;8.78;;;;;;;2.55;84.09;102554.33;1685194;84;21012;-71
2021/12/18 01:26:59;;;;;;;20.43;8.30;;;;;;;2.55;84.09;102550.38;1677843;84;21052;-70
2021/12/18 01:29:25;;;;;;;21.55;9.03;;;;;;;2.55;84.11;102544.66;1710741;83;20982;-70
2021/12/18 01:31:51;;;;;;;23.85;9.70;;;;;;;2.56;84.12;102541.11;1657581;83;20944;-70
2021/12/18 01:34:16;;;;;;;20.20;7.92;;;;;;;2.59;84.10;102542.75;1666008;83;21044;-70
2021/12/18 01:36:43;;;;;;;22.95;8.73;;;;;;;2.57;84.13;102536.70;1686844;84;20983;-70
2021/12/18 01:39:09;;;;;;;22.98;8.95;;;;;;;2.56;84.15;102545.52;1692154;84;21555;-70
2021/12/18 01:41:52;;;;;;;16.75;8.75;;;;;;;2.55;84.15;102544.66;1688265;84;20935;-70
2021/12/18 01:44:47;;;;;;;21.87;8.38;;;;;;;2.57;84.17;102548.55;1641927;84;21035;-70
2021/12/18 01:47:05;;;;;;;19.23;7.42;;;;;;;2.57;84.17;102548.55;1685559;84;21178;-71
2021/12/18 01:52:05;;;;;;;20.23;9.28;;;;;;;2.55;84.17;102542.02;1689857;84;21083;-70
2021/12/18 01:54:27;;;;;;;19.82;7.60;;;;;;;2.55;84.18;102538.53;1682802;84;21065;-70
2021/12/18 01:56:53;;;;;;;21.40;8.50;;;;;;;2.56;84.19;102544.20;1687201;84;21110;-70
2021/12/18 01:59:33;;;;;;;21.62;7.85;;;;;;;2.56;84.20;102544.20;1688270;84;21046;-70
2021/12/18 02:01:59;;;;;;;26.60;8.38;;;;;;;2.57;84.21;102542.80;1693695;84;26763;-70
2021/12/18 02:04:25;;;;;;;26.25;9.65;;;;;;;2.58;84.20;102542.34;1688352;84;21523;-70
2021/12/18 02:06:51;;;;;;;21.70;7.40;;;;;;;2.57;84.21;102540.17;1700379;83;20917;-70
2021/12/18 02:09:18;;;;;;;22.20;7.87;;;;;;;2.56;84.23;102540.25;1713514;83;20991;-70
2021/12/18 02:11:44;;;;;;;24.05;8.30;;;;;;;2.58;84.26;102541.03;1708839;83;21023;-70
2021/12/18 02:14:33;;;;;;;39.85;16.02;;;;;;;2.58;84.28;102536.62;1694370;84;21006;-70
2021/12/18 02:21:57;;;;;;;21.17;9.03;;;;;;;2.59;84.28;102536.16;1661611;83;21046;-70
2021/12/18 02:24:28;;;;;;;18.60;8.73;;;;;;;2.57;84.31;102528.80;1686218;84;22524;-70
2021/12/18 02:26:51;;;;;;;23.12;9.25;;;;;;;2.57;84.30;102526.17;1683180;84;21008;-70
2021/12/18 02:29:17;;;;;;;17.42;8.80;;;;;;;2.58;84.30;102531.36;1685171;84;20939;-70
2021/12/18 02:31:46;;;;;;;23.02;9.23;;;;;;;2.59;84.29;102528.27;1683869;84;21044;-70
2021/12/18 02:34:19;;;;;;;24.27;8.80;;;;;;;2.59;84.32;102530.90;1685679;84;21047;-71
2021/12/18 02:36:48;;;;;;;19.27;9.23;;;;;;;2.59;84.32;102525.63;1690470;83;22115;-71
2021/12/18 02:39:40;;;;;;;24.98;9.15;;;;;;;2.60;84.32;102524.72;1686387;84;21008;-70
2021/12/18 02:42:12;;;;;;;25.88;9.63;;;;;;;2.60;84.36;102515.50;1685807;84;21017;-70
2021/12/18 02:44:43;;;;;;;28.10;9.80;;;;;;;2.60;84.37;102508.91;1682188;84;21037;-70
2021/12/18 02:47:08;;;;;;;26.27;9.43;;;;;;;2.59;84.34;102503.24;1683292;84;21075;-70
2021/12/18 02:49:34;;;;;;;27.55;9.93;;;;;;;2.57;84.36;102498.03;1685948;84;22370;-71
2021/12/18 02:52:00;;;;;;;24.20;9.25;;;;;;;2.58;84.35;102500.20;1687770;84;20928;-70
2021/12/18 02:54:26;;;;;;;21.80;9.33;;;;;;;2.57;84.37;102502.47;1687372;84;21017;-70
2021/12/18 02:56:52;;;;;;;25.02;9.18;;;;;;;2.57;84.38;102507.73;1686346;84;21065;-71
2021/12/18 02:59:18;;;;;;;25.30;8.85;;;;;;;2.55;84.39;102503.84;1689685;84;21059;-70
2021/12/18 03:01:44;;;;;;;18.92;8.60;;;;;;;2.56;84.40;102503.38;1705391;83;21782;-70
2021/12/18 03:04:23;;;;;;;25.08;10.78;;;;;;;2.56;84.42;102502.06;1699777;83;21079;-70
2021/12/18 03:06:50;;;;;;;15.93;8.48;;;;;;;2.56;84.41;102507.34;1643189;85;21630;-70
2021/12/18 03:09:47;;;;;;;25.55;9.53;;;;;;;2.55;84.39;102515.69;1681997;84;20980;-70
2021/12/18 03:22:57;;;;;;;18.52;8.50;;;;;;;2.53;84.45;102505.21;1686760;82;21003;-70
2021/12/18 03:25:18;;;;;;;19.92;8.93;;;;;;;2.53;84.45;102503.52;1735497;82;21504;-71
2021/12/18 03:27:44;;;;;;;24.20;8.80;;;;;;;2.53;84.47;102503.52;1739211;82;21640;-70
2021/12/18 03:30:11;;;;;;;20.70;9.20;;;;;;;2.51;84.46;102496.53;1734326;82;21013;-70
2021/12/18 03:32:37;;;;;;;24.07;9.33;;;;;;;2.50;84.47;102490.00;1736721;82;21004;-70
2021/12/18 03:35:04;;;;;;;22.22;10.03;;;;;;;2.51;84.48;102493.04;1695475;83;21534;-70
2021/12/18 03:37:30;;;;;;;21.55;9.25;;;;;;;2.51;84.48;102489.95;1700358;83;21084;-70
2021/12/18 03:39:56;;;;;;;22.05;8.80;;;;;;;2.51;84.48;102493.91;1706186;83;21138;-70
2021/12/18 03:42:22;;;;;;;23.65;9.15;;;;;;;2.51;84.49;102495.22;1713557;83;21116;-70
2021/12/18 03:44:48;;;;;;;22.37;9.50;;;;;;;2.51;84.48;102496.98;1715895;83;21700;-70
2021/12/18 03:47:14;;;;;;;26.70;9.33;;;;;;;2.50;84.47;102493.50;1671489;85;20916;-70
2021/12/18 03:49:42;;;;;;;22.32;8.88;;;;;;;2.49;84.47;102497.08;1677957;84;20933;-70
2021/12/18 03:52:08;;;;;;;22.60;9.73;;;;;;;2.49;84.48;102502.34;1689255;83;21114;-71
2021/12/18 03:54:34;;;;;;;21.02;8.65;;;;;;;2.49;84.48;102493.12;1700202;83;20985;-71
2021/12/18 03:57:00;;;;;;;21.67;9.57;;;;;;;2.51;84.48;102492.58;1708997;83;20924;-71
2021/12/18 03:59:26;;;;;;;21.65;9.23;;;;;;;2.53;84.47;102494.30;1718204;83;21054;-70
2021/12/18 04:01:52;;;;;;;22.82;10.10;;;;;;;2.51;84.48;102487.31;1711920;83;21816;-70
2021/12/18 04:04:18;;;;;;;20.17;8.85;;;;;;;2.53;84.48;102492.98;1672192;85;21179;-71
2021/12/18 04:06:44;;;;;;;17.30;8.63;;;;;;;2.51;84.47;102487.31;1697850;83;21819;-70
2021/12/18 04:09:12;;;;;;;22.15;10.15;;;;;;;2.50;84.46;102485.59;1685355;84;21007;-71
2021/12/18 04:11:40;;;;;;;22.60;9.85;;;;;;;2.49;84.44;102485.23;1684354;84;21015;-70
2021/12/18 04:14:06;;;;;;;16.62;9.20;;;;;;;2.50;84.46;102486.05;1682952;84;21093;-71
2021/12/18 04:16:33;;;;;;;23.57;9.75;;;;;;;2.50;84.46;102479.02;1701583;83;21086;-71
2021/12/18 04:19:01;;;;;;;44.05;24.82;;;;;;;2.50;84.43;102479.47;1711831;83;21484;-71
2021/12/18 04:21:27;;;;;;;32.55;13.05;;;;;;;2.50;84.44;102479.02;1684559;84;21071;-71
2021/12/18 04:23:52;;;;;;;21.62;11.03;;;;;;;2.51;84.45;102480.73;1695287;84;21036;-71
2021/12/18 04:26:18;;;;;;;29.00;11.93;;;;;;;2.51;84.44;102480.73;1683101;85;21131;-71
2021/12/18 04:28:44;;;;;;;25.23;11.18;;;;;;;2.51;84.43;102479.42;1698595;84;21059;-71
2021/12/18 04:31:12;;;;;;;21.30;10.53;;;;;;;2.53;84.42;102474.09;1685318;84;20929;-70
2021/12/18 04:33:38;;;;;;;26.40;11.55;;;;;;;2.53;84.42;102476.73;1702040;82;21051;-70
2021/12/18 04:36:04;;;;;;;22.98;11.00;;;;;;;2.52;84.42;102475.02;1686664;84;21650;-70
2021/12/18 04:38:31;;;;;;;25.52;11.18;;;;;;;2.52;84.43;102475.02;1696891;84;21049;-71
2021/12/18 04:40:58;;;;;;;22.00;11.65;;;;;;;2.52;84.41;102473.70;1698031;84;21061;-70
2021/12/18 04:43:24;;;;;;;28.15;12.07;;;;;;;2.53;84.42;102476.23;1695310;84;21072;-71
2021/12/18 04:45:50;;;;;;;18.60;10.65;;;;;;;2.52;84.40;102471.06;1699883;84;21022;-70
2021/12/18 04:48:16;;;;;;;25.97;12.05;;;;;;;2.50;84.38;102471.11;1721880;83;21969;-71
2021/12/18 04:50:42;;;;;;;18.07;10.25;;;;;;;2.49;84.37;102471.20;1684306;84;20905;-70
2021/12/18 04:53:09;;;;;;;18.32;11.45;;;;;;;2.48;84.38;102465.07;1680917;84;21212;-71
2021/12/18 04:55:36;;;;;;;19.92;11.12;;;;;;;2.47;84.36;102460.72;1716087;83;21046;-70
2021/12/18 04:58:01;;;;;;;26.60;12.43;;;;;;;2.47;84.35;102463.36;1690230;84;21042;-70
2021/12/18 05:00:37;;;;;;;21.87;12.53;;;;;;;2.47;84.35;102458.09;1689946;84;20975;-70
2021/12/18 05:02:55;;;;;;;24.77;12.45;;;;;;;2.48;84.36;102457.17;1679249;84;21095;-70
2021/12/18 05:05:21;;;;;;;19.67;12.93;;;;;;;2.48;84.37;102446.64;1693398;84;21518;-70
2021/12/18 05:07:47;;;;;;;22.50;12.85;;;;;;;2.47;84.36;102448.88;1697864;83;20902;-70
2021/12/18 05:10:13;;;;;;;16.37;10.98;;;;;;;2.47;84.34;102437.48;1674278;85;20979;-70
2021/12/18 05:12:40;;;;;;;21.77;12.80;;;;;;;2.47;84.36;102439.66;1675196;85;21053;-70
2021/12/18 05:15:07;;;;;;;20.65;12.37;;;;;;;2.45;84.37;102430.98;1709904;83;21012;-70
2021/12/18 05:17:33;;;;;;;17.60;11.12;;;;;;;2.45;84.36;102427.49;1708578;83;21762;-70
2021/12/18 05:19:59;;;;;;;26.42;12.25;;;;;;;2.43;84.35;102422.28;1675543;85;21012;-70
2021/12/18 05:22:25;;;;;;;18.73;12.60;;;;;;;2.44;84.36;102433.67;1678075;84;21067;-70
2021/12/18 05:24:51;;;;;;;15.75;11.10;;;;;;;2.43;84.35;102436.76;1705055;83;21532;-70
2021/12/18 05:27:17;;;;;;;20.02;11.70;;;;;;;2.43;84.36;102427.55;1704177;83;20918;-70
2021/12/18 05:29:43;;;;;;;26.00;12.90;;;;;;;2.43;84.35;102428.86;1704450;83;22028;-69
2021/12/18 05:32:09;;;;;;;21.27;11.95;;;;;;;2.43;84.35;102442.02;1682334;84;20984;-69
2021/12/18 05:34:39;;;;;;;17.92;10.43;;;;;;;2.45;84.35;102443.29;1679422;84;20932;-70
2021/12/18 05:39:43;;;;;;;42.75;17.82;;;;;;;2.46;84.35;102443.20;1695914;83;21000;-69
2021/12/18 05:42:09;;;;;;;21.15;10.40;;;;;;;2.46;84.35;102441.89;1701155;83;21052;-70
2021/12/18 05:44:35;;;;;;;20.40;10.45;;;;;;;2.46;84.35;102440.57;1700451;83;21572;-70
2021/12/18 05:47:01;;;;;;;13.35;7.47;;;;;;;2.46;84.33;102437.11;1708865;83;21255;-70
2021/12/18 05:49:27;;;;;;;16.17;8.25;;;;;;;2.46;84.35;102437.11;1689217;83;21043;-70
2021/12/18 05:51:53;;;;;;;18.98;8.80;;;;;;;2.44;84.36;102437.16;1703314;83;20987;-70
2021/12/18 05:54:19;;;;;;;12.13;7.70;;;;;;;2.44;84.36;102431.90;1704614;83;21179;-70
2021/12/18 05:56:45;;;;;;;13.58;7.25;;;;;;;2.46;84.36;102440.57;1699579;83;21053;-70
2021/12/18 05:59:11;;;;;;;15.50;7.60;;;;;;;2.44;84.36;102435.84;1691407;83;20971;-70
2021/12/18 06:01:37;;;;;;;15.40;8.15;;;;;;;2.45;84.37;102434.94;1700709;83;20987;-70
2021/12/18 06:04:03;;;;;;;11.20;7.40;;;;;;;2.45;84.37;102436.70;1703776;83;21039;-69
2021/12/18 06:06:31;;;;;;;16.40;7.92;;;;;;;2.46;84.37;102433.16;1702177;83;21157;-69
2021/12/18 06:08:57;;;;;;;15.30;8.40;;;;;;;2.46;84.38;102430.03;1695248;84;21093;-69
2021/12/18 06:11:26;;;;;;;11.45;8.05;;;;;;;2.47;84.39;102431.76;1698254;84;20996;-70
2021/12/18 06:13:51;;;;;;;34.27;20.02;;;;;;;2.46;84.39;102422.63;1688656;83;21009;-70
2021/12/18 06:16:18;;;;;;;29.32;13.68;;;;;;;2.45;84.40;102417.82;1693973;84;21064;-69
2021/12/18 06:18:45;;;;;;;18.10;9.53;;;;;;;2.44;84.40;102424.00;1697645;83;21974;-70
2021/12/18 06:21:14;;;;;;;18.82;9.43;;;;;;;2.45;84.42;102429.67;1700662;83;21504;-70
2021/12/18 06:23:41;;;;;;;;;;;;;;;2.46;84.41;102432.67;1699597;83;21031;-70
2021/12/18 06:26:07;;;;;;;19.92;8.85;;;;;;;2.47;84.43;102429.13;1701202;83;20269;-70
2021/12/18 06:28:33;;;;;;;13.48;6.78;;;;;;;2.47;84.44;102439.66;1701064;83;20998;-70
2021/12/18 06:30:59;;;;;;;13.28;7.97;;;;;;;2.45;84.43;102434.94;1684370;85;21569;-70
2021/12/18 06:33:25;;;;;;;15.45;8.28;;;;;;;2.46;84.45;102427.41;1697610;84;21562;-70
2021/12/18 06:35:51;;;;;;;14.15;7.72;;;;;;;2.46;84.45;102431.35;1699815;84;20936;-70
2021/12/18 06:38:17;;;;;;;10.48;6.08;;;;;;;2.46;84.45;102430.03;1700988;84;20905;-69
2021/12/18 06:40:43;;;;;;;10.30;5.95;;;;;;;2.45;84.45;102428.34;1699806;84;21721;-70
2021/12/18 06:43:09;;;;;;;11.38;7.28;;;;;;;2.46;84.45;102422.14;1707688;83;21194;-69
2021/12/18 06:45:36;;;;;;;18.60;10.58;;;;;;;2.46;84.47;102422.14;1706813;83;21022;-70
2021/12/18 06:48:02;;;;;;;18.98;11.05;;;;;;;2.47;84.47;102426.49;1708172;83;21487;-70
2021/12/18 06:50:28;;;;;;;25.97;13.48;;;;;;;2.47;84.48;102428.27;1710128;83;20984;-70
2021/12/18 06:52:54;;;;;;;29.52;13.62;;;;;;;2.47;84.47;102427.80;1671135;85;21505;-70
2021/12/18 06:55:20;;;;;;;17.20;7.92;;;;;;;2.49;84.50;102427.30;1710214;83;21194;-70
2021/12/18 06:57:47;;;;;;;14.18;7.72;;;;;;;2.49;84.48;102435.20;1707133;84;21016;-70
2021/12/18 07:00:14;;;;;;;18.62;9.28;;;;;;;2.50;84.49;102434.25;1708619;83;21044;-70
2021/12/18 07:02:41;;;;;;;21.42;10.63;;;;;;;2.51;84.50;102429.84;1705974;83;21075;-70
2021/12/18 07:05:08;;;;;;;19.65;9.78;;;;;;;2.53;84.51;102428.84;1702236;83;21028;-70
2021/12/18 07:07:34;;;;;;;24.45;11.45;;;;;;;2.53;84.52;102420.94;1704110;83;21158;-70
2021/12/18 07:10:01;;;;;;;22.65;10.03;;;;;;;2.55;84.53;102421.34;1670907;85;21020;-70
2021/12/18 07:12:27;;;;;;;15.88;9.63;;;;;;;2.53;84.53;102416.98;1679801;84;21045;-70
2021/12/18 07:14:53;;;;;;;22.10;11.45;;;;;;;2.56;84.54;102416.48;1708951;83;21179;-70
2021/12/18 07:17:19;;;;;;;22.22;11.25;;;;;;;2.57;84.54;102416.87;1707952;83;20926;-70
2021/12/18 07:19:45;;;;;;;20.62;11.48;;;;;;;2.58;84.55;102415.94;1680343;85;21186;-70
2021/12/18 07:22:11;;;;;;;29.70;14.78;;;;;;;2.60;84.55;102411.47;1683986;83;20977;-70
2021/12/18 07:24:37;;;;;;;22.02;11.83;;;;;;;2.60;84.55;102415.42;1716739;83;21006;-70
2021/12/18 07:27:03;;;;;;;18.32;10.72;;;;;;;2.61;84.57;102415.33;1680501;85;20872;-70
2021/12/18 07:29:29;;;;;;;26.77;13.98;;;;;;;2.63;84.56;102415.28;1688801;84;21071;-70
2021/12/18 07:31:55;;;;;;;41.48;19.50;;;;;;;2.65;84.59;102408.14;1686539;84;21067;-70
2021/12/18 07:34:21;;;;;;;32.88;16.40;;;;;;;2.66;84.58;102409.86;1679113;84;20981;-70
2021/12/18 07:36:47;;;;;;;23.47;14.00;;;;;;;2.67;84.59;102408.49;1694607;83;21061;-70
2021/12/18 07:39:14;;;;;;;33.18;15.38;;;;;;;2.66;84.60;102405.45;1690592;84;20888;-70
2021/12/18 07:41:40;;;;;;;31.30;14.55;;;;;;;2.70;84.59;102400.91;1709591;83;21078;-70
2021/12/18 07:44:06;;;;;;;40.63;17.37;;;;;;;2.70;84.59;102400.91;1678824;85;20901;-70
2021/12/18 07:46:37;;;;;;;34.55;14.05;;;;;;;2.70;84.59;102400.91;1709246;82;21080;-70
2021/12/18 07:49:04;;;;;;;30.48;15.88;;;;;;;2.70;84.60;102406.17;1667020;86;21031;-70
2021/12/18 07:51:31;;;;;;;35.95;16.62;;;;;;;2.73;84.60;102413.93;1684873;83;21074;-70
2021/12/18 07:53:57;;;;;;;26.12;14.40;;;;;;;2.74;84.63;102405.11;1690924;83;21069;-71
2021/12/18 07:56:24;;;;;;;27.80;15.10;;;;;;;2.75;84.59;102405.48;1719044;83;21672;-70
2021/12/18 07:58:51;;;;;;;33.92;18.85;;;;;;;2.76;84.63;102409.83;1718261;83;20991;-70
2021/12/18 08:01:18;;;;;;;23.15;14.68;;;;;;;2.78;84.61;102410.14;1708110;82;21013;-70
2021/12/18 08:03:44;;;;;;;40.70;18.87;;;;;;;2.81;84.62;102419.71;1712750;83;21464;-70
2021/12/18 08:06:10;;;;;;;37.90;18.35;;;;;;;2.81;84.62;102414.44;1701976;83;21030;-70
2021/12/18 08:08:36;;;;;;;39.35;19.12;;;;;;;2.83;84.62;102422.66;1693029;84;21220;-70
2021/12/18 08:11:03;;;;;;;37.08;24.37;;;;;;;2.85;84.63;102419.97;1672716;85;21441;-70
2021/12/18 08:13:30;;;;;;;27.15;17.10;;;;;;;2.85;84.62;102412.06;1701088;83;21659;-71
2021/12/18 08:15:56;;;;;;;41.65;23.10;;;;;;;2.82;84.61;102405.12;1703674;83;21491;-70
2021/12/18 08:18:22;;;;;;;31.70;18.73;;;;;;;2.84;84.62;102411.66;1704500;83;21092;-71
2021/12/18 08:20:48;;;;;;;26.23;15.23;;;;;;;2.84;84.61;102408.56;1692671;84;21122;-70
2021/12/18 08:23:14;;;;;;;27.27;16.65;;;;;;;2.83;84.62;102394.13;1701080;83;20945;-70
2021/12/18 08:25:39;;;;;;;27.60;15.60;;;;;;;2.83;84.62;102398.09;1669203;85;21137;-70
2021/12/18 08:28:06;;;;;;;39.90;19.75;;;;;;;2.83;84.61;102404.67;1674433;85;20980;-70
2021/12/18 08:30:36;;;;;;;35.60;18.95;;;;;;;2.86;84.62;102401.89;1703996;83;21136;-70
2021/12/18 08:33:02;;;;;;;24.05;14.53;;;;;;;2.86;84.64;102399.25;1705831;82;21163;-70
2021/12/18 08:35:28;;;;;;;34.25;19.40;;;;;;;2.86;84.64;102401.43;1705706;82;20939;-70
2021/12/18 08:37:55;;;;;;;27.55;14.55;;;;;;;2.86;84.64;102403.20;1703934;83;21468;-70
2021/12/18 08:40:21;;;;;;;47.05;20.65;;;;;;;2.87;84.62;102399.20;1693971;84;21068;-70
2021/12/18 08:42:47;;;;;;;31.00;15.28;;;;;;;2.88;84.64;102390.83;1691131;84;21055;-71
2021/12/18 08:45:13;;;;;;;21.10;11.73;;;;;;;2.88;84.62;102397.42;1692777;82;21173;-71
2021/12/18 08:47:39;;;;;;;24.92;13.40;;;;;;;2.87;84.60;102393.07;1699561;83;21565;-70
2021/12/18 08:50:06;;;;;;;24.43;13.53;;;;;;;2.88;84.62;102392.16;1697586;83;20923;-70
2021/12/18 08:52:33;;;;;;;20.30;13.03;;;;;;;2.90;84.63;102391.14;1696166;83;21409;-69
2021/12/18 08:54:59;;;;;;;24.65;14.15;;;;;;;2.93;84.64;102396.72;1669948;85;21504;-69
2021/12/18 08:57:26;;;;;;;21.50;13.38;;;;;;;2.94;84.62;102390.54;1694287;84;21159;-71
2021/12/18 08:59:52;;;;;;;38.13;19.17;;;;;;;2.92;84.62;102384.50;1690863;84;21011;-71
2021/12/18 09:02:18;;;;;;;30.52;15.45;;;;;;;2.92;84.62;102383.18;1691971;82;20903;-71
2021/12/18 09:04:44;;;;;;;22.55;12.40;;;;;;;2.94;84.62;102383.95;1693498;84;20907;-71
2021/12/18 09:07:10;;;;;;;25.82;13.45;;;;;;;2.94;84.61;102382.63;1700464;82;21088;-71
2021/12/18 09:09:38;;;;;;;31.07;15.70;;;;;;;2.96;84.61;102380.77;1677469;84;21164;-71
2021/12/18 09:12:05;;;;;;;32.20;15.75;;;;;;;3.00;84.63;102379.70;1704149;83;21033;-71
2021/12/18 09:14:31;;;;;;;35.58;17.17;;;;;;;3.02;84.62;102379.18;1678403;84;21090;-71
2021/12/18 09:16:57;;;;;;;61.42;30.62;;;;;;;3.05;84.63;102375.53;1698088;83;21001;-71
2021/12/18 09:19:23;;;;;;;34.73;18.27;;;;;;;3.09;84.63;102380.59;1683746;84;21029;-71
2021/12/18 09:21:49;;;;;;;25.48;13.98;;;;;;;3.12;84.61;102374.31;1704848;83;21003;-71
2021/12/18 09:24:15;;;;;;;26.10;15.55;;;;;;;3.14;84.61;102368.48;1681295;85;21737;-71
2021/12/18 09:26:41;;;;;;;57.50;27.85;;;;;;;3.17;84.62;102368.34;1701282;82;20988;-71
2021/12/18 09:29:07;;;;;;;36.50;19.85;;;;;;;3.16;84.62;102370.61;1705876;83;20866;-71
2021/12/18 09:31:33;;;;;;;34.08;17.17;;;;;;;3.16;84.61;102367.52;1704282;83;20917;-71
2021/12/18 09:33:59;;;;;;;46.58;24.65;;;;;;;3.16;84.61;102360.92;1700299;82;21796;-71
2021/12/18 09:36:25;;;;;;;32.23;18.73;;;;;;;3.14;84.60;102356.63;1689868;82;20885;-71
2021/12/18 09:38:51;;;;;;;52.62;26.42;;;;;;;3.15;84.59;102357.89;1690699;83;21008;-71
2021/12/18 09:41:17;;;;;;;31.90;17.25;;;;;;;3.17;84.60;102354.70;1698319;82;21524;-71
2021/12/18 09:43:42;;;;;;;38.70;20.88;;;;;;;3.20;84.61;102357.18;1703348;83;21001;-71
2021/12/18 09:46:11;;;;;;;63.83;36.75;;;;;;;3.21;84.58;102350.12;1706090;83;21177;-71
2021/12/18 09:48:39;;;;;;;31.82;18.75;;;;;;;3.20;84.57;102344.00;1675240;85;21036;-71
2021/12/18 09:51:08;;;;;;;31.48;20.05;;;;;;;3.22;84.58;102339.52;1671283;84;21865;-71
2021/12/18 09:53:35;;;;;;;45.67;29.87;;;;;;;3.23;84.57;102335.97;1686142;83;21463;-71
2021/12/18 09:56:02;;;;;;;64.62;40.92;;;;;;;3.23;84.57;102335.97;1688929;84;21066;-71
2021/12/18 09:58:28;;;;;;;50.65;28.87;;;;;;;3.26;84.56;102333.64;1684559;84;21077;-71
2021/12/18 10:00:54;;;;;;;41.05;24.47;;;;;;;3.26;84.56;102330.54;1702304;82;20890;-71
2021/12/18 10:03:22;;;;;;;28.67;18.42;;;;;;;3.29;84.55;102321.62;1705097;83;20912;-71
2021/12/18 10:05:47;;;;;;;33.75;21.50;;;;;;;3.32;84.56;102314.41;1682483;84;21062;-71
2021/12/18 10:08:18;;;;;;;27.00;18.60;;;;;;;3.32;84.54;102300.37;1673670;84;21760;-71
2021/12/18 10:11:06;;;;;;;29.60;19.65;;;;;;;3.32;84.54;102299.05;1672719;85;21146;-71
2021/12/18 10:13:56;;;;;;;30.80;22.10;;;;;;;3.34;84.54;102295.89;1678500;85;21441;-71
2021/12/18 10:16:22;;;;;;;26.70;19.17;;;;;;;3.33;84.53;102300.30;1703664;83;21063;-71
2021/12/18 10:18:50;;;;;;;29.57;18.52;;;;;;;3.35;84.54;102295.79;1703959;83;38594;-71
2021/12/18 10:21:19;;;;;;;33.75;21.48;;;;;;;3.36;84.54;102288.28;1703539;83;21627;-71
2021/12/18 10:23:46;;;;;;;26.20;17.85;;;;;;;3.36;84.53;102286.96;1676180;84;21785;-71
2021/12/18 10:26:39;;;;;;;36.03;20.40;;;;;;;3.36;84.53;102288.28;1692953;84;21020;-71
2021/12/18 10:29:08;;;;;;;35.60;20.20;;;;;;;3.39;84.54;102281.53;1689259;84;21130;-71
2021/12/18 10:31:43;;;;;;;43.05;24.35;;;;;;;3.41;84.53;102278.83;1681924;84;21066;-71
2021/12/18 10:34:15;;;;;;;31.42;19.48;;;;;;;3.43;84.55;102275.17;1686110;84;21047;-71
2021/12/18 10:36:41;;;;;;;27.52;16.55;;;;;;;3.45;84.55;102279.89;1667932;85;21808;-71
2021/12/18 10:39:07;;;;;;;28.98;16.75;;;;;;;3.45;84.54;102273.75;1678652;84;20960;-71
2021/12/18 10:41:35;;;;;;;30.65;15.23;;;;;;;3.44;84.56;102274.25;1700907;83;20976;-71
2021/12/18 10:44:11;;;;;;;32.23;15.63;;;;;;;3.41;84.55;102270.42;1698387;84;21067;-71
2021/12/18 10:46:43;;;;;;;43.52;17.17;;;;;;;3.38;84.53;102273.68;1685206;83;21108;-71
2021/12/18 10:49:12;;;;;;;27.60;13.72;;;;;;;3.39;84.56;102272.30;1685101;84;21318;-71
2021/12/18 10:51:38;;;;;;;26.52;14.75;;;;;;;3.40;84.54;102271.84;1669021;85;21046;-71
2021/12/18 10:54:17;;;;;;;29.30;15.40;;;;;;;3.45;84.55;102281.20;1702650;83;21292;-71
2021/12/18 10:56:51;;;;;;;21.33;12.65;;;;;;;3.51;84.56;102276.10;1707211;83;21533;-71
2021/12/18 10:59:32;;;;;;;23.92;13.50;;;;;;;3.55;84.58;102267.56;1674272;85;21019;-71
2021/12/18 11:02:01;;;;;;;26.50;17.67;;;;;;;3.55;84.56;102268.88;1699982;84;21640;-71
2021/12/18 11:04:38;;;;;;;39.15;21.70;;;;;;;3.53;84.57;102272.45;1700377;83;21079;-71
2021/12/18 11:07:27;;;;;;;25.80;19.65;;;;;;;3.54;84.58;102262.75;1674630;85;21055;-71
2021/12/18 11:10:12;;;;;;;22.37;12.35;;;;;;;3.52;84.58;102250.95;1714083;83;21023;-71
2021/12/18 11:15:22;;;;;;;36.30;19.87;;;;;;;3.50;84.56;102237.00;1694851;84;21286;-71
2021/12/18 11:17:48;;;;;;;34.40;16.75;;;;;;;3.52;84.58;102231.62;1693822;82;20987;-72
2021/12/18 11:20:14;;;;;;;25.80;13.90;;;;;;;3.53;84.56;102234.20;1692994;83;20979;-71
2021/12/18 11:22:41;;;;;;;43.73;20.97;;;;;;;3.52;84.57;102227.21;1702134;83;20996;-71
2021/12/18 11:25:10;;;;;;;38.23;19.95;;;;;;;3.53;84.59;102223.66;1677416;84;20989;-71
2021/12/18 11:27:36;;;;;;;28.87;15.63;;;;;;;3.55;84.60;102210.39;1699446;83;21810;-71
2021/12/18 11:30:11;;;;;;;29.92;17.45;;;;;;;3.56;84.60;102211.22;1694306;84;21072;-71
2021/12/18 11:32:40;;;;;;;28.70;16.85;;;;;;;3.55;84.60;102210.39;1699972;84;21066;-71
2021/12/18 11:35:12;;;;;;;153.23;45.30;;;;;;;3.57;84.62;102213.79;1678810;84;21081;-71
2021/12/18 11:37:44;;;;;;;46.05;19.62;;;;;;;3.58;84.62;102201.00;1693064;83;21062;-71
2021/12/18 11:40:12;;;;;;;32.60;16.75;;;;;;;3.60;84.64;102198.27;1663192;84;21563;-72
2021/12/18 11:42:38;;;;;;;83.33;28.45;;;;;;;3.63;84.64;102196.77;1689223;83;21028;-71
2021/12/18 11:45:05;;;;;;;67.87;26.55;;;;;;;3.64;84.66;102187.94;1680385;84;20925;-71
2021/12/18 11:47:36;;;;;;;97.37;31.05;;;;;;;3.64;84.69;102185.30;1696947;84;21578;-71
2021/12/18 11:50:28;;;;;;;90.45;31.27;;;;;;;3.65;84.69;102184.38;1696615;84;21061;-71
2021/12/18 11:53:13;;;;;;;81.28;28.23;;;;;;;3.67;84.70;102186.45;1716669;81;21549;-71
2021/12/18 11:55:53;;;;;;;38.90;18.55;;;;;;;3.70;84.75;102190.23;1748840;81;21483;-71
2021/12/18 11:58:32;;;;;;;28.62;15.43;;;;;;;3.71;84.75;102181.41;1752506;81;21112;-71
2021/12/18 12:01:05;;;;;;;37.38;13.40;;;;;;;3.74;84.76;102182.09;1753116;81;21038;-71